Terminal Aerodrome Forecast
Issued by NWS

Home | Current Version | Previous Version | Text Only | Print | Product List | Glossary On
Versions: 1 2 3 4 5 6 7 8 9 10 11 12 13 14 15 16 17 18 19 20 21 22 23 24 25 26 27 28
000
FTUS41 KBUF 180300 AAA
TAFJHW
TAF AMD
KJHW 180308Z 1803/1824 00000KT 6SM BR SKC
     FM180600 00000KT 4SM BR SCT250
     FM180800 VRB03KT 1SM BR BKN002
     FM181200 VRB03KT 6SM BR SCT001 BKN250
     FM181400 35006KT P6SM BKN040
     FM181700 36008KT P6SM BKN025
     FM182200 36008KT P6SM BKN200
      AMD LTD TO CLD VIS AND WIND=

USA.gov is the U.S. government's official web portal to all federal, state and local government web resources and services.